Lumber City, Georgia
Current Conditions -  °F | °C
As of 8:15 AM on Sunday 21 Dec 2014 (Local Time) from KAZE Reporting Station
Overcast Overcast  
Wind Chill: 51°   Ceiling: 400
Heat Index: 51°   Visibility: 7mi
Dew Point: 51°   Wind: 3mph
Humidity: 100%   Direction: 50°NE
Pressure: 30.16"   Gusts: NA
Location:  31.93°N, 82.68°W
Report Text: KAZE 211315Z AUTO 05003KT 7SM OVC004 11/11 A3016 RMK AO2 T01080108
Loading
Personal Weather Stations






























Interactive Weather Map New forecast layout! Learn more

10-Day Weather Forecast

Advertisements
Track Severe Weather on mobile